createdAt,value
2023-04-28T00:03:09.239Z,34.79
2023-04-28T00:06:03.453Z,36.21
2023-04-28T00:08:57.213Z,36.66
2023-04-28T00:11:50.829Z,34.79
2023-04-28T00:14:44.573Z,34.39
2023-04-28T00:17:38.219Z,34.01
2023-04-28T00:20:32.423Z,34.26
2023-04-28T00:23:26.220Z,34.13
2023-04-28T00:26:19.960Z,34.18
2023-04-28T00:29:13.770Z,34.26
2023-04-28T00:32:07.968Z,34.11
2023-04-28T00:35:02.724Z,34.36
2023-04-28T00:37:56.775Z,34.19
2023-04-28T00:40:50.451Z,34.11
2023-04-28T00:43:51.806Z,34.09
2023-04-28T00:46:45.680Z,34.10
2023-04-28T00:49:39.742Z,34.16
2023-04-28T00:52:34.165Z,34.11
2023-04-28T00:55:31.972Z,34.15
2023-04-28T00:58:24.591Z,34.21
2023-04-28T01:01:19.102Z,34.20
2023-04-28T01:04:13.096Z,34.28
2023-04-28T01:07:07.328Z,34.17
2023-04-28T01:10:00.918Z,34.31
2023-04-28T01:12:54.473Z,34.37
2023-04-28T01:15:48.158Z,34.46
2023-04-28T01:18:48.108Z,34.48
2023-04-28T01:21:41.783Z,34.40
2023-04-28T01:24:35.665Z,34.55
2023-04-28T01:27:29.273Z,34.43
2023-04-28T01:30:23.383Z,34.29
2023-04-28T01:33:17.160Z,34.32
2023-04-28T01:36:11.959Z,34.33
2023-04-28T01:39:06.012Z,34.33
2023-04-28T01:41:59.775Z,34.24
2023-04-28T01:44:53.443Z,34.26
2023-04-28T01:47:47.561Z,34.40
2023-04-28T01:50:41.151Z,34.41
2023-04-28T01:53:34.789Z,34.48
2023-04-28T01:56:28.756Z,34.58
2023-04-28T01:59:22.462Z,34.57
2023-04-28T02:02:16.336Z,34.59
2023-04-28T02:05:12.143Z,34.64
2023-04-28T02:08:06.136Z,34.60
2023-04-28T02:11:01.592Z,34.43
2023-04-28T02:13:55.998Z,34.64
2023-04-28T02:16:49.984Z,34.84
2023-04-28T02:19:43.625Z,34.89
2023-04-28T02:22:37.446Z,34.94
2023-04-28T02:25:31.522Z,34.69
2023-04-28T02:28:25.382Z,34.40
2023-04-28T02:31:19.194Z,34.30
2023-04-28T02:34:13.075Z,34.17
2023-04-28T02:37:07.433Z,34.25
2023-04-28T02:40:01.421Z,34.17
2023-04-28T02:42:55.195Z,34.05
2023-04-28T02:45:48.826Z,34.23
2023-04-28T02:48:42.810Z,34.20
2023-04-28T02:51:36.683Z,34.03
2023-04-28T02:54:30.848Z,33.96
2023-04-28T02:57:25.039Z,33.90
2023-04-28T03:00:20.686Z,33.93
2023-04-28T03:03:14.813Z,33.83
2023-04-28T03:06:09.268Z,33.81
2023-04-28T03:09:04.021Z,33.93
2023-04-28T03:11:57.650Z,33.85
2023-04-28T03:14:51.678Z,33.93
2023-04-28T03:17:45.724Z,33.86
2023-04-28T03:20:39.507Z,34.04
2023-04-28T03:23:33.233Z,33.88
2023-04-28T03:26:27.191Z,34.02
2023-04-28T03:29:21.278Z,33.87
2023-04-28T03:32:15.070Z,33.92
2023-04-28T03:35:10.253Z,33.99
2023-04-28T03:38:04.147Z,33.81
2023-04-28T03:40:58.219Z,33.87
2023-04-28T03:43:52.007Z,33.79
2023-04-28T03:46:45.694Z,33.97
2023-04-28T03:49:39.650Z,33.84
2023-04-28T03:52:33.447Z,33.75
2023-04-28T03:55:28.151Z,34.08
2023-04-28T03:58:22.151Z,33.85
2023-04-28T04:01:15.755Z,33.82
2023-04-28T04:04:09.762Z,33.89
2023-04-28T04:07:04.472Z,33.73
2023-04-28T04:09:58.407Z,33.80
2023-04-28T04:12:52.511Z,33.78
2023-04-28T04:15:46.255Z,33.93
2023-04-28T04:18:40.253Z,33.86
2023-04-28T04:21:35.052Z,33.73
2023-04-28T04:24:29.053Z,33.66
2023-04-28T04:27:22.935Z,33.67
2023-04-28T04:30:17.210Z,33.65
2023-04-28T04:33:13.088Z,33.68
2023-04-28T04:36:07.908Z,33.78
2023-04-28T04:39:01.887Z,33.67
2023-04-28T04:41:55.475Z,33.66
2023-04-28T04:44:49.446Z,33.64
2023-04-28T04:47:43.894Z,33.71
2023-04-28T04:50:37.810Z,33.75
2023-04-28T04:53:31.800Z,33.67
2023-04-28T04:56:25.679Z,33.71
2023-04-28T04:59:19.714Z,33.91
2023-04-28T05:02:13.752Z,33.86
2023-04-28T05:05:20.508Z,33.81
2023-04-28T05:08:16.184Z,33.40
2023-04-28T05:11:10.522Z,33.68
2023-04-28T05:14:04.560Z,33.22
2023-04-28T05:16:58.509Z,32.65
2023-04-28T05:19:53.700Z,32.76
2023-04-28T05:22:47.707Z,32.80
2023-04-28T05:25:42.052Z,33.23
2023-04-28T05:28:36.280Z,32.67
2023-04-28T05:31:30.561Z,31.92
2023-04-28T05:34:24.658Z,31.90
2023-04-28T05:37:18.550Z,31.97
2023-04-28T05:40:14.410Z,32.22
2023-04-28T05:43:08.244Z,31.66
2023-04-28T05:46:02.972Z,31.55
2023-04-28T05:48:56.713Z,31.94
2023-04-28T05:51:50.414Z,31.81
2023-04-28T05:54:44.195Z,31.81
2023-04-28T05:57:49.198Z,31.50
2023-04-28T06:00:46.150Z,31.45
2023-04-28T06:03:41.983Z,31.54
2023-04-28T06:06:36.619Z,31.47
2023-04-28T06:09:30.695Z,31.12
2023-04-28T06:12:24.559Z,31.32
2023-04-28T06:15:18.405Z,31.47
2023-04-28T06:18:12.158Z,31.28
2023-04-28T06:21:06.118Z,31.38
2023-04-28T06:24:00.848Z,31.46
2023-04-28T06:26:54.538Z,31.43
2023-04-28T06:29:48.430Z,31.21
2023-04-28T06:32:42.162Z,31.26
2023-04-28T06:35:38.914Z,31.08
2023-04-28T06:38:32.562Z,31.10
2023-04-28T06:41:26.565Z,30.98
2023-04-28T06:44:20.242Z,31.85
2023-04-28T06:47:14.004Z,31.66
2023-04-28T06:50:08.866Z,31.29
2023-04-28T06:53:03.105Z,30.83
2023-04-28T06:55:56.881Z,31.04
2023-04-28T06:58:50.951Z,31.13
2023-04-28T07:01:44.884Z,31.18
2023-04-28T07:04:38.828Z,31.69
2023-04-28T07:07:32.557Z,30.93
2023-04-28T07:10:26.405Z,30.58
2023-04-28T07:13:20.319Z,31.27
2023-04-28T07:16:14.153Z,30.79
2023-04-28T07:19:07.783Z,30.48
2023-04-28T07:22:01.520Z,31.31
2023-04-28T07:24:55.270Z,30.92
2023-04-28T07:27:50.284Z,31.09
2023-04-28T07:30:44.753Z,30.54
2023-04-28T07:33:38.490Z,30.07
2023-04-28T07:36:32.793Z,29.82
2023-04-28T07:39:26.719Z,31.20
2023-04-28T07:42:20.430Z,30.78
2023-04-28T07:45:15.951Z,30.22
2023-04-28T07:48:10.028Z,30.04
2023-04-28T07:51:03.908Z,30.33
2023-04-28T07:53:58.006Z,30.57
2023-04-28T07:56:52.072Z,31.66
2023-04-28T07:59:45.940Z,30.00
2023-04-28T08:02:40.140Z,29.15
2023-04-28T08:05:34.701Z,28.96
2023-04-28T08:08:28.447Z,28.21
2023-04-28T08:11:22.514Z,27.91
2023-04-28T08:14:16.544Z,27.95
2023-04-28T08:17:10.501Z,27.82
2023-04-28T08:20:04.981Z,28.60
2023-04-28T08:22:59.112Z,27.20
2023-04-28T08:25:53.718Z,28.89
2023-04-28T08:28:47.387Z,29.53
2023-04-28T08:31:41.712Z,28.28
2023-04-28T08:34:35.713Z,27.44
2023-04-28T08:37:29.574Z,28.25
2023-04-28T08:40:24.394Z,29.80
2023-04-28T08:43:18.340Z,29.55
2023-04-28T08:46:12.498Z,29.38
2023-04-28T08:49:08.926Z,29.21
2023-04-28T08:52:04.134Z,29.10
2023-04-28T08:54:59.597Z,29.45
2023-04-28T08:57:54.876Z,29.49
2023-04-28T09:00:48.676Z,29.02
2023-04-28T09:03:43.179Z,28.95
2023-04-28T09:06:39.859Z,29.47
2023-04-28T09:09:37.063Z,29.13
2023-04-28T09:12:41.998Z,29.01
2023-04-28T09:15:37.529Z,28.87
2023-04-28T09:18:33.082Z,28.87
2023-04-28T09:21:27.006Z,29.03
2023-04-28T09:24:33.522Z,26.94
2023-04-28T09:27:30.707Z,26.70
2023-04-28T09:30:44.728Z,26.43
2023-04-28T09:33:38.997Z,26.29
2023-04-28T09:36:33.700Z,26.78
2023-04-28T09:39:34.708Z,26.49
2023-04-28T09:42:38.448Z,27.94
2023-04-28T09:45:52.987Z,26.74
2023-04-28T09:48:47.253Z,26.65
2023-04-28T09:51:41.139Z,27.86
2023-04-28T09:54:36.995Z,28.39
2023-04-28T09:57:33.865Z,27.01
2023-04-28T10:00:28.701Z,27.01
2023-04-28T10:03:27.559Z,27.25
2023-04-28T10:06:23.645Z,27.66
2023-04-28T10:09:02.753Z,27.00
2023-04-28T10:11:57.383Z,26.61
2023-04-28T10:14:42.590Z,27.39
2023-04-28T10:17:22.858Z,29.49
2023-04-28T10:20:18.730Z,34.54
2023-04-28T10:23:59.667Z,36.29
2023-04-28T10:27:11.253Z,30.82
2023-04-28T10:30:27.275Z,29.36
2023-04-28T10:33:30.763Z,28.87
2023-04-28T10:36:55.100Z,28.38
2023-04-28T10:40:34.664Z,28.15
2023-04-28T10:43:43.717Z,27.94
2023-04-28T10:47:03.119Z,28.11
2023-04-28T10:50:15.813Z,28.05
2023-04-28T10:53:09.514Z,28.21
2023-04-28T10:56:11.810Z,28.30
2023-04-28T10:59:28.934Z,27.97
2023-04-28T11:02:45.105Z,28.72
2023-04-28T11:05:39.620Z,29.45
2023-04-28T11:08:39.611Z,29.49
2023-04-28T11:11:35.081Z,29.56
2023-04-28T11:14:40.427Z,28.11
2023-04-28T11:17:43.748Z,28.98
2023-04-28T11:20:38.725Z,28.04
2023-04-28T11:23:34.466Z,29.13
2023-04-28T11:26:29.584Z,29.13
2023-04-28T11:29:44.135Z,28.97
2023-04-28T11:32:40.224Z,28.46
2023-04-28T11:35:45.034Z,28.78
2023-04-28T11:38:51.075Z,28.10
2023-04-28T11:41:46.223Z,28.06
2023-04-28T11:44:40.596Z,27.48
2023-04-28T11:47:36.779Z,27.59
2023-04-28T11:50:41.552Z,26.94
2023-04-28T11:53:47.431Z,27.05
2023-04-28T11:56:44.793Z,27.38
2023-04-28T11:59:39.964Z,27.93
2023-04-28T12:02:37.072Z,27.55
2023-04-28T12:05:31.639Z,27.50
2023-04-28T12:08:33.240Z,29.49
2023-04-28T12:11:27.100Z,29.68
2023-04-28T12:14:21.151Z,30.52
2023-04-28T12:17:39.909Z,28.69
2023-04-28T12:20:41.239Z,28.65
2023-04-28T12:23:36.929Z,28.29
2023-04-28T12:26:30.937Z,29.17
2023-04-28T12:30:04.504Z,28.91
2023-04-28T12:33:01.606Z,29.33
2023-04-28T12:36:05.874Z,27.77
2023-04-28T12:38:59.642Z,29.06
2023-04-28T12:41:53.604Z,29.52
2023-04-28T12:44:47.944Z,29.87
2023-04-28T12:47:42.243Z,28.34
2023-04-28T12:50:36.512Z,28.14
2023-04-28T12:53:30.247Z,27.99
2023-04-28T12:56:24.736Z,28.68
2023-04-28T12:59:18.626Z,29.25
2023-04-28T13:02:13.889Z,29.56
2023-04-28T13:05:09.284Z,28.10
2023-04-28T13:08:03.163Z,27.80
2023-04-28T13:10:57.360Z,27.77
2023-04-28T13:13:52.836Z,27.53
2023-04-28T13:16:47.078Z,27.28
2023-04-28T13:19:40.991Z,27.17
2023-04-28T13:22:35.151Z,27.32
2023-04-28T13:25:28.989Z,27.81
2023-04-28T13:28:22.852Z,27.41
2023-04-28T13:31:16.649Z,27.31
2023-04-28T13:34:15.897Z,27.29
2023-04-28T13:37:10.516Z,27.94
2023-04-28T13:40:06.190Z,27.86
2023-04-28T13:43:00.507Z,27.64
2023-04-28T13:45:54.718Z,26.87
2023-04-28T13:48:48.596Z,27.53
2023-04-28T13:51:42.728Z,27.58
2023-04-28T13:54:37.127Z,27.77
2023-04-28T13:57:31.426Z,27.23
2023-04-28T14:00:26.063Z,27.45
2023-04-28T14:03:21.817Z,26.92
2023-04-28T14:06:15.712Z,26.47
2023-04-28T14:09:09.844Z,26.72
2023-04-28T14:12:03.562Z,26.67
2023-04-28T14:14:57.648Z,27.55
2023-04-28T14:17:52.721Z,28.63
2023-04-28T14:20:46.793Z,28.15
2023-04-28T14:23:40.940Z,29.57
2023-04-28T14:26:35.298Z,31.18
2023-04-28T14:29:29.331Z,29.91
2023-04-28T14:32:23.098Z,29.37
2023-04-28T14:35:17.555Z,29.90
2023-04-28T14:38:11.434Z,30.37
2023-04-28T14:41:05.239Z,30.53
2023-04-28T14:43:59.089Z,31.90
2023-04-28T14:46:53.395Z,32.15
2023-04-28T14:49:48.622Z,32.72
2023-04-28T14:52:42.535Z,33.06
2023-04-28T14:55:36.582Z,32.36
2023-04-28T14:58:30.371Z,31.46
2023-04-28T15:01:24.534Z,31.59
2023-04-28T15:04:18.658Z,31.67
2023-04-28T15:07:12.589Z,31.97
2023-04-28T15:10:06.796Z,31.12
2023-04-28T15:13:00.574Z,31.25
2023-04-28T15:15:54.837Z,31.03
2023-04-28T15:18:49.125Z,31.29
2023-04-28T15:21:43.298Z,30.91
2023-04-28T15:24:37.196Z,30.97
2023-04-28T15:27:31.285Z,30.90
2023-04-28T15:30:25.046Z,31.07
2023-04-28T15:33:19.024Z,30.93
2023-04-28T15:36:13.788Z,30.89
2023-04-28T15:39:07.883Z,30.80
2023-04-28T15:42:01.552Z,31.30
2023-04-28T15:44:56.247Z,31.49
2023-04-28T15:47:51.954Z,31.48
2023-04-28T15:50:46.544Z,31.58
2023-04-28T15:53:41.696Z,31.63
2023-04-28T15:56:36.138Z,30.93
2023-04-28T15:59:31.078Z,31.09
2023-04-28T16:02:26.883Z,31.16
2023-04-28T16:05:20.983Z,31.56
2023-04-28T16:08:14.943Z,31.48
2023-04-28T16:11:09.314Z,31.75
2023-04-28T16:14:03.162Z,30.61
2023-04-28T16:16:57.593Z,30.96
2023-04-28T16:19:52.445Z,32.40
2023-04-28T16:22:46.768Z,32.04
2023-04-28T16:25:41.171Z,32.52
2023-04-28T16:28:35.510Z,32.06
2023-04-28T16:31:29.639Z,33.30
2023-04-28T16:34:23.593Z,33.33
2023-04-28T16:37:17.826Z,32.82
2023-04-28T16:40:13.871Z,32.49
2023-04-28T16:43:07.665Z,32.30
2023-04-28T16:45:51.349Z,31.95
2023-04-28T16:48:45.644Z,31.70
2023-04-28T16:51:39.508Z,32.25
2023-04-28T16:54:33.922Z,31.80
2023-04-28T16:57:28.207Z,31.70
2023-04-28T17:00:24.198Z,32.79
2023-04-28T17:03:18.403Z,32.45
2023-04-28T17:06:02.439Z,31.74
2023-04-28T17:08:56.893Z,32.14
2023-04-28T17:11:50.908Z,32.23
2023-04-28T17:14:44.732Z,32.07
2023-04-28T17:17:21.342Z,32.02
2023-04-28T17:20:18.164Z,32.15
2023-04-28T17:23:12.258Z,32.33
2023-04-28T17:26:06.441Z,32.04
2023-04-28T17:29:01.151Z,32.28
2023-04-28T17:31:55.015Z,32.19
2023-04-28T17:34:50.171Z,32.57
2023-04-28T17:37:43.814Z,32.76
2023-04-28T17:40:37.407Z,32.72
2023-04-28T17:43:31.451Z,32.34
2023-04-28T17:46:25.597Z,32.21
2023-04-28T17:49:19.880Z,32.26
2023-04-28T17:52:15.411Z,32.32
2023-04-28T17:55:11.012Z,32.48
2023-04-28T17:58:04.725Z,32.57
2023-04-28T18:01:06.031Z,32.42
2023-04-28T18:03:59.746Z,32.72
2023-04-28T18:06:53.609Z,32.72
2023-04-28T18:09:47.425Z,32.88
2023-04-28T18:12:41.403Z,32.94
2023-04-28T18:15:35.254Z,32.99
2023-04-28T18:18:31.058Z,33.17
2023-04-28T18:21:25.878Z,32.88
2023-04-28T18:24:19.855Z,33.08
2023-04-28T18:27:13.687Z,33.20
2023-04-28T18:30:08.520Z,33.25
2023-04-28T18:33:02.140Z,33.28
2023-04-28T18:36:07.178Z,33.51
2023-04-28T18:39:01.791Z,33.15
2023-04-28T18:41:55.389Z,33.22
2023-04-28T18:44:52.900Z,33.48
2023-04-28T18:47:46.764Z,33.57
2023-04-28T18:50:40.715Z,33.84
2023-04-28T18:53:34.645Z,33.77
2023-04-28T18:56:28.386Z,33.78
2023-04-28T18:59:22.432Z,33.42
2023-04-28T19:02:16.585Z,33.56
2023-04-28T19:05:11.852Z,33.63
2023-04-28T19:08:10.880Z,34.04
2023-04-28T19:11:05.659Z,34.23
2023-04-28T19:14:00.477Z,34.27
2023-04-28T19:16:54.180Z,34.62
2023-04-28T19:19:48.198Z,35.47
2023-04-28T19:22:43.816Z,34.44
2023-04-28T19:25:37.713Z,34.72
2023-04-28T19:28:31.785Z,34.01
2023-04-28T19:31:25.553Z,33.77
2023-04-28T19:34:19.252Z,33.51
2023-04-28T19:37:13.862Z,36.02
2023-04-28T19:40:09.717Z,36.10
2023-04-28T19:43:04.056Z,35.62
2023-04-28T19:45:58.181Z,35.12
2023-04-28T19:48:52.762Z,34.94
2023-04-28T19:51:46.442Z,34.98
2023-04-28T19:54:40.270Z,35.34
2023-04-28T19:57:33.888Z,36.35
2023-04-28T20:00:29.795Z,36.47
2023-04-28T20:03:24.972Z,35.68
2023-04-28T20:06:21.054Z,35.33
2023-04-28T20:09:14.695Z,35.02
2023-04-28T20:12:10.536Z,35.10
2023-04-28T20:15:04.411Z,35.16
2023-04-28T20:17:58.234Z,34.93
2023-04-28T20:20:54.759Z,34.77
2023-04-28T20:23:48.387Z,34.82
2023-04-28T20:26:42.676Z,34.62
2023-04-28T20:29:37.119Z,34.49
2023-04-28T20:32:30.953Z,34.46
2023-04-28T20:35:25.125Z,34.34
2023-04-28T20:38:19.793Z,34.32
2023-04-28T20:41:13.677Z,34.33
2023-04-28T20:44:07.578Z,34.33
2023-04-28T20:47:01.590Z,34.35
2023-04-28T20:49:55.209Z,34.62
2023-04-28T20:52:48.976Z,34.37
2023-04-28T20:55:42.678Z,34.37
2023-04-28T20:58:36.449Z,34.62
2023-04-28T21:01:30.062Z,34.54
2023-04-28T21:04:23.784Z,34.61
2023-04-28T21:07:17.852Z,34.72
2023-04-28T21:10:13.160Z,34.77
2023-04-28T21:13:08.596Z,34.71
2023-04-28T21:16:02.393Z,34.65
2023-04-28T21:18:56.654Z,34.63
2023-04-28T21:21:50.624Z,34.86
2023-04-28T21:24:44.430Z,34.73
2023-04-28T21:27:38.117Z,34.61
2023-04-28T21:30:31.869Z,34.76
2023-04-28T21:33:25.661Z,34.61
2023-04-28T21:36:19.399Z,34.69
2023-04-28T21:39:13.147Z,34.78
2023-04-28T21:42:08.094Z,34.72
2023-04-28T21:45:01.863Z,35.09
2023-04-28T21:47:57.044Z,35.15
2023-04-28T21:50:50.701Z,35.12
2023-04-28T21:53:44.374Z,35.14
2023-04-28T21:56:38.145Z,35.32
2023-04-28T21:59:31.883Z,35.29
2023-04-28T22:02:25.627Z,35.04
2023-04-28T22:05:19.957Z,34.70
2023-04-28T22:08:13.874Z,34.51
2023-04-28T22:11:08.038Z,34.56
2023-04-28T22:14:01.647Z,34.83
2023-04-28T22:16:55.237Z,34.81
2023-04-28T22:19:49.501Z,35.64
2023-04-28T22:22:43.621Z,35.42
2023-04-28T22:25:38.102Z,35.43
2023-04-28T22:28:32.058Z,35.50
2023-04-28T22:31:25.788Z,35.59
2023-04-28T22:34:19.514Z,35.52
2023-04-28T22:37:13.255Z,35.67
2023-04-28T22:40:08.937Z,35.60
2023-04-28T22:43:02.808Z,35.69
2023-04-28T22:45:58.049Z,35.83
2023-04-28T22:48:52.215Z,35.72
2023-04-28T22:51:46.213Z,35.86
2023-04-28T22:54:40.041Z,36.03
2023-04-28T22:57:34.281Z,36.12
2023-04-28T23:00:28.656Z,36.20
2023-04-28T23:03:22.802Z,36.21
2023-04-28T23:06:02.017Z,36.39
2023-04-28T23:08:56.580Z,36.52
2023-04-28T23:11:50.498Z,36.51
2023-04-28T23:14:44.298Z,36.57
2023-04-28T23:17:38.381Z,36.66
2023-04-28T23:20:34.066Z,36.74
2023-04-28T23:23:27.677Z,36.64
2023-04-28T23:26:21.785Z,36.75
2023-04-28T23:29:15.588Z,36.83
2023-04-28T23:32:09.629Z,36.94
2023-04-28T23:35:03.339Z,37.05
2023-04-28T23:37:57.104Z,37.07
2023-04-28T23:40:36.205Z,37.18
2023-04-28T23:43:29.779Z,37.29
2023-04-28T23:46:23.868Z,37.36
2023-04-28T23:49:17.782Z,37.31
2023-04-28T23:52:11.463Z,37.26
2023-04-28T23:55:05.571Z,37.25
2023-04-28T23:57:59.563Z,37.10
